Time;durP1;ratioP1;P1;durP2;ratioP2;P2;SDS_P1;SDS_P2;PMS_P1;PMS_P2;Temp;Humidity;BMP_temperature;BMP_pressure;BME280_temperature;BME280_humidity;BME280_pressure;Samples;Min_cycle;Max_cycle;Signal;HPM_P1;HPM_P2
2023/04/08 10:32:43;;;;;;;;;;;14.80;99.90;;;;;;5106989;27;19919;-68
2023/04/08 10:35:10;;;;;;;;;;;14.30;99.90;;;;;;5100060;28;20141;-70
2023/04/08 10:37:37;;;;;;;;;;;14.20;99.90;;;;;;5093288;28;20379;-69
2023/04/08 10:40:06;;;;;;;;;;;14.40;99.90;;;;;;5102899;28;20295;-69
2023/04/08 10:42:33;;;;;;;;;;;;;;;;;;5097789;28;19924;-70
2023/04/08 10:45:01;;;;;;;;;;;;;;;;;;5110140;28;20355;-70
2023/04/08 10:47:28;;;;;;;;;;;;;;;;;;5102369;28;20420;-70
2023/04/08 10:49:55;;;;;;;;;;;;;;;;;;5104497;28;19927;-69
2023/04/08 10:52:22;;;;;;;;;;;;;;;;;;5100643;28;19924;-70
2023/04/08 10:54:50;;;;;;;;;;;14.20;99.90;;;;;;5101756;28;19932;-69
2023/04/08 10:57:23;;;;;;;;;;;14.50;99.90;;;;;;5107207;28;19932;-69
2023/04/08 10:59:50;;;;;;;;;;;14.80;99.90;;;;;;5096591;28;19969;-69
2023/04/08 11:02:17;;;;;;;;;;;14.80;99.90;;;;;;5103072;28;20440;-70
2023/04/08 11:04:44;;;;;;;;;;;;;;;;;;5095950;28;20288;-67
2023/04/08 11:07:11;;;;;;;;;;;14.90;99.90;;;;;;5096053;28;19924;-70
2023/04/08 11:09:39;;;;;;;;;;;14.90;99.90;;;;;;5104272;28;19924;-70
2023/04/08 11:12:08;;;;;;;;;;;15.20;99.90;;;;;;5105111;28;19924;-71
2023/04/08 11:14:37;;;;;;;;;;;15.20;99.90;;;;;;5100985;28;19935;-70
2023/04/08 11:17:04;;;;;;;;;;;15.40;99.90;;;;;;5106171;28;19931;-69
2023/04/08 11:19:31;;;;;;;;;;;15.30;99.90;;;;;;5103480;28;19943;-71
2023/04/08 11:21:58;;;;;;;;;;;15.00;99.90;;;;;;5105691;28;19924;-70
2023/04/08 11:24:26;;;;;;;;;;;14.90;99.90;;;;;;5100944;28;19931;-70
2023/04/08 11:26:52;;;;;;;;;;;14.70;99.90;;;;;;5104073;28;19931;-70
2023/04/08 11:29:21;;;;;;;;;;;15.00;99.90;;;;;;5104802;28;19986;-69
2023/04/08 11:31:50;;;;;;;;;;;;;;;;;;5107142;27;19951;-70
2023/04/08 11:34:17;;;;;;;;;;;;;;;;;;5112670;27;19924;-70
2023/04/08 11:36:45;;;;;;;;;;;15.60;99.90;;;;;;5132275;27;19924;-74
2023/04/08 11:39:12;;;;;;;;;;;15.60;99.90;;;;;;5114873;27;20056;-70
2023/04/08 11:41:39;;;;;;;;;;;15.50;99.90;;;;;;5114992;27;19924;-69
2023/04/08 11:44:06;;;;;;;;;;;15.40;99.90;;;;;;5049849;28;19928;-70
2023/04/08 11:46:35;;;;;;;;;;;15.40;99.90;;;;;;5053249;28;20005;-69
2023/04/08 11:49:03;;;;;;;;;;;15.20;99.90;;;;;;5053881;28;20020;-70
2023/04/08 11:51:30;;;;;;;;;;;14.90;99.90;;;;;;5064898;28;20019;-68
2023/04/08 11:53:57;;;;;;;;;;;;;;;;;;5057473;28;19929;-70
2023/04/08 11:56:25;;;;;;;;;;;;;;;;;;5059434;28;19924;-69
2023/04/08 11:58:52;;;;;;;;;;;;;;;;;;5067086;28;20025;-70
2023/04/08 12:01:19;;;;;;;;;;;;;;;;;;5053327;28;19982;-69
2023/04/08 12:03:46;;;;;;;;;;;;;;;;;;5063227;28;20292;-67
2023/04/08 12:06:14;;;;;;;;;;;;;;;;;;5061587;28;19929;-67
2023/04/08 12:08:41;;;;;;;;;;;;;;;;;;5053647;28;20392;-68
2023/04/08 12:11:10;;;;;;;;;;;16.30;99.90;;;;;;5057041;28;19929;-68
2023/04/08 12:13:37;;;;;;;;;;;16.40;99.90;;;;;;5053396;28;19994;-67
2023/04/08 12:16:03;;;;;;;;;;;16.40;99.90;;;;;;5058723;28;19971;-68
2023/04/08 12:18:30;;;;;;;;;;;16.50;99.90;;;;;;5054578;28;19932;-69
2023/04/08 12:20:57;;;;;;;;;;;16.50;99.90;;;;;;5054529;28;19925;-70
2023/04/08 12:23:24;;;;;;;;;;;16.50;99.90;;;;;;5060804;28;19928;-69
2023/04/08 12:25:51;;;;;;;;;;;;;;;;;;5060988;28;19986;-70
2023/04/08 12:28:18;;;;;;;;;;;;;;;;;;5058170;28;20308;-69
2023/04/08 12:30:46;;;;;;;;;;;16.90;99.90;;;;;;5061113;28;20376;-69
2023/04/08 12:33:13;;;;;;;;;;;16.50;99.90;;;;;;5053934;28;19924;-69
2023/04/08 12:35:40;;;;;;;;;;;16.20;99.90;;;;;;5053791;28;19924;-69
2023/04/08 12:38:07;;;;;;;;;;;15.90;99.90;;;;;;5062561;28;19932;-69
2023/04/08 12:40:34;;;;;;;;;;;;;;;;;;5060555;28;20370;-69
2023/04/08 12:43:00;;;;;;;;;;;16.40;99.90;;;;;;5063583;28;20360;-69
2023/04/08 12:45:27;;;;;;;;;;;;;;;;;;5057721;28;19932;-70
2023/04/08 12:47:55;;;;;;;;;;;;;;;;;;5055852;28;20353;-69
2023/04/08 12:50:22;;;;;;;;;;;;;;;;;;5057916;28;19945;-70
2023/04/08 12:52:49;;;;;;;;;;;;;;;;;;5053951;28;19983;-67
2023/04/08 12:55:17;;;;;;;;;;;;;;;;;;5052583;28;19940;-70
2023/04/08 12:57:45;;;;;;;;;;;16.90;99.90;;;;;;5055908;28;20384;-70
2023/04/08 13:00:13;;;;;;;;;;;16.60;99.90;;;;;;5060606;28;19931;-69
2023/04/08 13:02:40;;;;;;;;;;;16.70;99.90;;;;;;5058707;28;19925;-69
2023/04/08 13:05:07;;;;;;;;;;;16.90;99.90;;;;;;5055533;28;19933;-69
2023/04/08 13:07:34;;;;;;;;;;;17.40;99.90;;;;;;5076362;28;19929;-70
2023/04/08 13:10:02;;;;;;;;;;;18.00;99.90;;;;;;5057524;28;19924;-69
2023/04/08 13:12:29;;;;;;;;;;;18.30;99.90;;;;;;5064557;28;19977;-70
2023/04/08 13:14:57;;;;;;;;;;;19.40;99.90;;;;;;5064031;28;20504;-70
2023/04/08 13:17:24;;;;;;;;;;;;;;;;;;5062962;28;19975;-70
2023/04/08 13:19:51;;;;;;;;;;;;;;;;;;5059345;28;19925;-70
2023/04/08 13:22:18;;;;;;;;;;;;;;;;;;5062514;28;20383;-69
2023/04/08 13:24:45;;;;;;;;;;;;;;;;;;5058426;28;20346;-70
2023/04/08 13:27:12;;;;;;;;;;;;;;;;;;5057968;28;19975;-70
2023/04/08 13:29:39;;;;;;;;;;;;;;;;;;5054412;28;19924;-70
2023/04/08 13:32:06;;;;;;;;;;;;;;;;;;5051510;28;19968;-69
2023/04/08 13:34:34;;;;;;;;;;;16.80;99.90;;;;;;5060695;28;19924;-69
2023/04/08 13:37:02;;;;;;;;;;;16.50;99.90;;;;;;5059515;28;19924;-67
2023/04/08 13:39:28;;;;;;;;;;;15.90;99.90;;;;;;5056396;28;19926;-69
2023/04/08 13:41:55;;;;;;;;;;;15.50;99.90;;;;;;5055073;28;20281;-68
2023/04/08 13:44:22;;;;;;;;;;;15.40;99.90;;;;;;5061349;28;19987;-69
2023/04/08 13:46:49;;;;;;;;;;;15.20;99.90;;;;;;5062054;28;19933;-67
2023/04/08 13:49:16;;;;;;;;;;;14.90;99.90;;;;;;5065672;28;19924;-69
2023/04/08 13:51:44;;;;;;;;;;;14.60;99.90;;;;;;5061287;28;20023;-70
2023/04/08 13:54:11;;;;;;;;;;;14.50;99.90;;;;;;5055652;28;19925;-69
2023/04/08 13:56:37;;;;;;;;;;;14.50;99.90;;;;;;5054264;28;20318;-69
2023/04/08 13:59:04;;;;;;;;;;;14.40;99.90;;;;;;5063546;28;19924;-70
2023/04/08 14:01:31;;;;;;;;;;;14.40;99.90;;;;;;5061738;28;19925;-68
2023/04/08 14:03:58;;;;;;;;;;;14.50;99.90;;;;;;5062585;28;19937;-70
2023/04/08 14:06:25;;;;;;;;;;;14.50;99.90;;;;;;5060810;28;19925;-67
2023/04/08 14:08:53;;;;;;;;;;;14.60;99.90;;;;;;5057461;28;19924;-70
2023/04/08 14:11:20;;;;;;;;;;;14.50;99.90;;;;;;5071400;28;20346;-68
2023/04/08 14:13:47;;;;;;;;;;;14.60;99.90;;;;;;5052707;28;19925;-69
2023/04/08 14:16:15;;;;;;;;;;;14.80;99.90;;;;;;5051294;28;19924;-68
2023/04/08 14:18:42;;;;;;;;;;;15.10;99.90;;;;;;5058500;28;19925;-70
2023/04/08 14:21:08;;;;;;;;;;;15.30;99.90;;;;;;5058784;28;19928;-67
2023/04/08 14:23:35;;;;;;;;;;;15.40;99.90;;;;;;5054401;28;19932;-69
2023/04/08 14:26:04;;;;;;;;;;;15.40;99.90;;;;;;5057693;28;19925;-70
2023/04/08 14:28:30;;;;;;;;;;;15.10;99.90;;;;;;5062539;28;19924;-68
2023/04/08 14:30:57;;;;;;;;;;;14.80;99.90;;;;;;5051140;28;19925;-70
2023/04/08 14:33:24;;;;;;;;;;;14.90;99.90;;;;;;5051711;28;19978;-67
2023/04/08 14:35:52;;;;;;;;;;;15.00;99.90;;;;;;5060576;28;19925;-69
2023/04/08 14:38:19;;;;;;;;;;;15.10;99.90;;;;;;5058708;28;19931;-68
2023/04/08 14:40:46;;;;;;;;;;;15.20;99.90;;;;;;5062236;28;19925;-69
2023/04/08 14:43:14;;;;;;;;;;;15.20;99.90;;;;;;5054874;28;19990;-70
2023/04/08 14:45:41;;;;;;;;;;;15.10;99.90;;;;;;5052578;28;20403;-70
2023/04/08 14:48:07;;;;;;;;;;;15.30;99.90;;;;;;5055330;28;19954;-69
2023/04/08 14:50:34;;;;;;;;;;;15.80;99.90;;;;;;5052331;28;19952;-70
2023/04/08 14:53:02;;;;;;;;;;;;;;;;;;5050762;28;19991;-70
2023/04/08 14:55:31;;;;;;;;;;;;;;;;;;5074195;23;19925;-68
2023/04/08 14:57:57;;;;;;;;;;;15.50;99.90;;;;;;5014105;28;19976;-69
2023/04/08 15:00:25;;;;;;;;;;;15.60;99.90;;;;;;5013290;28;19926;-68
2023/04/08 15:02:52;;;;;;;;;;;15.70;99.90;;;;;;5008587;28;20479;-69
2023/04/08 15:05:21;;;;;;;;;;;15.80;99.90;;;;;;5031135;28;19926;-69
2023/04/08 15:07:48;;;;;;;;;;;15.80;99.90;;;;;;4983598;28;20361;-69
2023/04/08 15:10:14;;;;;;;;;;;15.70;99.90;;;;;;4978990;28;20136;-69
2023/04/08 15:12:41;;;;;;;;;;;15.50;99.90;;;;;;4990083;28;19929;-69
2023/04/08 15:15:08;;;;;;;;;;;15.50;99.90;;;;;;4994343;28;19945;-67
2023/04/08 15:17:36;;;;;;;;;;;15.30;99.90;;;;;;4995029;28;19926;-67
2023/04/08 15:20:04;;;;;;;;;;;15.20;99.90;;;;;;5000032;28;19934;-66
2023/04/08 15:22:31;;;;;;;;;;;15.20;99.90;;;;;;5001453;28;20004;-67
2023/04/08 15:24:58;;;;;;;;;;;16.00;99.90;;;;;;4987931;28;20456;-67
2023/04/08 15:27:25;;;;;;;;;;;16.50;99.90;;;;;;4992222;28;20297;-67
2023/04/08 15:29:52;;;;;;;;;;;16.80;99.90;;;;;;4993160;28;19933;-66
2023/04/08 15:32:18;;;;;;;;;;;17.30;99.90;;;;;;4979742;28;20010;-67
2023/04/08 15:34:47;;;;;;;;;;;17.90;99.90;;;;;;4998502;28;19926;-67
2023/04/08 15:37:13;;;;;;;;;;;18.20;99.90;;;;;;5003814;28;19929;-67
2023/04/08 15:39:40;;;;;;;;;;;19.00;99.90;;;;;;5003009;28;19926;-67
2023/04/08 15:42:07;;;;;;;;;;;19.60;99.90;;;;;;4999566;28;19925;-67
2023/04/08 15:44:34;;;;;;;;;;;20.00;99.90;;;;;;4995523;28;19976;-67
2023/04/08 15:47:01;;;;;;;;;;;20.20;99.90;;;;;;4984136;28;19926;-67
2023/04/08 15:49:28;;;;;;;;;;;20.40;99.90;;;;;;4995476;28;19926;-67
2023/04/08 15:51:56;;;;;;;;;;;20.40;99.90;;;;;;4985058;28;19926;-67
2023/04/08 15:54:23;;;;;;;;;;;20.40;99.90;;;;;;5009506;28;19929;-67
2023/04/08 15:56:50;;;;;;;;;;;20.40;99.90;;;;;;4994126;28;19976;-67
2023/04/08 15:59:16;;;;;;;;;;;20.30;99.90;;;;;;4995759;28;19930;-68
2023/04/08 16:01:43;;;;;;;;;;;19.90;99.90;;;;;;4988071;28;20364;-69
2023/04/08 16:04:10;;;;;;;;;;;19.20;99.90;;;;;;4992327;28;19973;-67
2023/04/08 16:06:37;;;;;;;;;;;18.60;99.90;;;;;;5001862;28;20366;-67
2023/04/08 16:09:05;;;;;;;;;;;18.10;99.90;;;;;;4991649;28;19985;-67
2023/04/08 16:11:33;;;;;;;;;;;17.50;99.90;;;;;;5000242;28;19981;-66
2023/04/08 16:14:00;;;;;;;;;;;17.20;99.90;;;;;;4991634;28;19933;-69
2023/04/08 16:16:27;;;;;;;;;;;16.90;99.90;;;;;;4986515;28;19969;-67
2023/04/08 16:18:55;;;;;;;;;;;16.20;99.90;;;;;;5001133;28;19929;-76
2023/04/08 16:21:22;;;;;;;;;;;15.60;99.90;;;;;;5000125;28;20308;-74
2023/04/08 16:23:48;;;;;;;;;;;15.50;99.90;;;;;;4989878;28;19929;-67
2023/04/08 16:26:17;;;;;;;;;;;15.40;99.90;;;;;;5008577;28;19930;-66
2023/04/08 16:28:43;;;;;;;;;;;15.20;99.90;;;;;;4984435;28;20467;-66
2023/04/08 16:31:10;;;;;;;;;;;15.20;99.90;;;;;;4989646;28;19926;-67
2023/04/08 16:33:37;;;;;;;;;;;15.30;99.90;;;;;;4993390;28;19926;-67
2023/04/08 16:36:04;;;;;;;;;;;15.10;99.90;;;;;;4995661;28;19929;-68
2023/04/08 16:38:31;;;;;;;;;;;14.80;99.90;;;;;;4990886;28;19992;-68
2023/04/08 16:40:58;;;;;;;;;;;14.90;99.90;;;;;;5009642;28;20392;-67
2023/04/08 16:43:27;;;;;;;;;;;15.40;99.90;;;;;;4983633;28;19965;-68
2023/04/08 16:45:53;;;;;;;;;;;16.00;99.90;;;;;;4989659;28;19930;-69
2023/04/08 16:48:21;;;;;;;;;;;16.30;99.90;;;;;;4990533;28;19926;-68
2023/04/08 16:50:48;;;;;;;;;;;16.30;99.90;;;;;;4988535;28;19929;-68
2023/04/08 16:53:15;;;;;;;;;;;16.30;99.90;;;;;;4988152;28;19933;-68
2023/04/08 16:55:42;;;;;;;;;;;16.60;99.90;;;;;;4994722;28;19926;-68
2023/04/08 16:58:08;;;;;;;;;;;17.10;99.90;;;;;;4993060;28;19933;-68
2023/04/08 17:00:38;;;;;;;;;;;17.60;99.90;;;;;;4990830;28;19984;-67
2023/04/08 17:03:05;;;;;;;;;;;17.50;99.90;;;;;;4991599;28;19926;-68
2023/04/08 17:05:32;;;;;;;;;;;17.30;99.90;;;;;;4992099;28;19984;-68
2023/04/08 17:07:59;;;;;;;;;;;17.10;99.90;;;;;;4985538;28;20548;-67
2023/04/08 17:10:26;;;;;;;;;;;16.60;99.90;;;;;;5002392;28;19932;-67
2023/04/08 17:12:52;;;;;;;;;;;16.10;99.90;;;;;;4992143;28;19926;-69
2023/04/08 17:15:19;;;;;;;;;;;15.50;99.90;;;;;;5001413;28;19984;-69
2023/04/08 17:17:48;;;;;;;;;;;15.00;99.90;;;;;;4990922;28;19933;-68
2023/04/08 17:20:14;;;;;;;;;;;14.60;99.90;;;;;;4983423;28;19930;-68
2023/04/08 17:22:42;;;;;;;;;;;14.20;99.90;;;;;;4983924;28;19926;-69
2023/04/08 17:25:09;;;;;;;;;;;13.90;99.90;;;;;;5007517;28;19933;-68
2023/04/08 17:27:36;;;;;;;;;;;13.60;99.90;;;;;;4995735;28;19930;-67
2023/04/08 17:30:03;;;;;;;;;;;13.40;99.90;;;;;;4991582;28;20409;-69
2023/04/08 17:32:30;;;;;;;;;;;13.30;99.90;;;;;;4992303;28;19926;-68
2023/04/08 17:34:59;;;;;;;;;;;13.20;99.90;;;;;;4994006;28;19930;-67
2023/04/08 17:37:26;;;;;;;;;;;;;;;;;;5003564;28;19926;-68
2023/04/08 17:39:53;;;;;;;;;;;;;;;;;;4992776;28;19926;-68
2023/04/08 17:42:21;;;;;;;;;;;12.80;99.90;;;;;;4999722;28;19926;-68
2023/04/08 17:44:48;;;;;;;;;;;;;;;;;;4987485;28;19926;-68
2023/04/08 17:47:15;;;;;;;;;;;;;;;;;;5001176;28;20476;-68
2023/04/08 17:49:42;;;;;;;;;;;12.50;99.90;;;;;;4992092;28;19926;-67
2023/04/08 17:52:10;;;;;;;;;;;12.60;99.90;;;;;;4980854;28;19938;-68
2023/04/08 17:54:37;;;;;;;;;;;12.50;99.90;;;;;;4995534;28;20356;-67
2023/04/08 17:57:04;;;;;;;;;;;12.50;99.90;;;;;;4994729;28;19933;-68
2023/04/08 17:59:30;;;;;;;;;;;12.30;99.90;;;;;;4996048;28;19925;-68
2023/04/08 18:01:57;;;;;;;;;;;12.30;99.90;;;;;;4994996;28;19926;-68
2023/04/08 18:04:24;;;;;;;;;;;12.20;99.90;;;;;;4993164;28;19925;-68
2023/04/08 18:06:51;;;;;;;;;;;12.20;99.90;;;;;;4997862;28;19932;-68
2023/04/08 18:09:19;;;;;;;;;;;12.10;99.90;;;;;;4992125;28;19976;-69
2023/04/08 18:11:46;;;;;;;;;;;12.10;99.90;;;;;;4988823;28;19980;-69
2023/04/08 18:14:13;;;;;;;;;;;;;;;;;;4994515;28;19977;-67
2023/04/08 18:16:40;;;;;;;;;;;11.80;99.90;;;;;;4997072;28;19926;-68
2023/04/08 18:19:06;;;;;;;;;;;12.00;99.90;;;;;;5007101;28;20389;-67
2023/04/08 18:21:33;;;;;;;;;;;12.00;99.90;;;;;;4999519;28;19925;-66
2023/04/08 18:24:00;;;;;;;;;;;11.90;99.90;;;;;;4989521;28;19930;-68
2023/04/08 18:26:30;;;;;;;;;;;11.90;99.90;;;;;;4989290;28;19948;-68
2023/04/08 18:28:56;;;;;;;;;;;11.90;99.90;;;;;;5003310;28;19933;-68
2023/04/08 18:31:24;;;;;;;;;;;11.80;99.90;;;;;;4986031;28;19926;-68
2023/04/08 18:33:51;;;;;;;;;;;11.80;99.90;;;;;;4994364;28;19933;-68
2023/04/08 18:36:17;;;;;;;;;;;11.70;99.90;;;;;;4986115;28;19926;-67
2023/04/08 18:38:44;;;;;;;;;;;11.80;99.90;;;;;;4987598;28;20316;-68
2023/04/08 18:41:12;;;;;;;;;;;11.70;99.90;;;;;;4982077;28;19960;-68
2023/04/08 18:43:40;;;;;;;;;;;11.70;99.90;;;;;;4980704;28;19977;-68
2023/04/08 18:46:07;;;;;;;;;;;11.70;99.90;;;;;;4998340;28;19926;-68
2023/04/08 18:48:34;;;;;;;;;;;11.60;99.90;;;;;;4982641;28;19997;-69
2023/04/08 18:51:01;;;;;;;;;;;11.60;99.90;;;;;;5010129;28;20304;-69
2023/04/08 18:53:30;;;;;;;;;;;11.60;99.90;;;;;;4990873;28;19959;-69
2023/04/08 18:55:57;;;;;;;;;;;11.60;99.90;;;;;;4992965;28;20013;-70
2023/04/08 18:58:25;;;;;;;;;;;11.60;99.90;;;;;;4999927;28;19925;-69
2023/04/08 19:00:54;;;;;;;;;;;11.50;99.90;;;;;;4997480;28;19932;-67
2023/04/08 19:03:21;;;;;;;;;;;11.50;99.90;;;;;;5016316;28;19933;-69
2023/04/08 19:05:47;;;;;;;;;;;11.40;99.90;;;;;;5005267;28;19957;-68
2023/04/08 19:08:14;;;;;;;;;;;11.40;99.90;;;;;;5004289;28;19927;-68
2023/04/08 19:10:41;;;;;;;;;;;11.40;99.90;;;;;;5004656;28;19926;-68
2023/04/08 19:13:08;;;;;;;;;;;11.30;99.90;;;;;;5005943;28;19925;-68
2023/04/08 19:15:35;;;;;;;;;;;11.30;99.90;;;;;;5000726;28;19926;-68
2023/04/08 19:18:04;;;;;;;;;;;11.20;99.90;;;;;;5001116;28;20496;-70
2023/04/08 19:20:31;;;;;;;;;;;11.10;99.90;;;;;;4981000;28;19953;-69
2023/04/08 19:22:58;;;;;;;;;;;11.00;99.90;;;;;;4991274;28;20392;-69
2023/04/08 19:25:25;;;;;;;;;;;10.90;99.90;;;;;;5003434;28;19929;-68
2023/04/08 19:27:51;;;;;;;;;;;10.80;99.90;;;;;;4991494;28;20347;-69
2023/04/08 19:30:18;;;;;;;;;;;10.80;99.90;;;;;;4996191;28;19925;-69
2023/04/08 19:32:45;;;;;;;;;;;10.70;99.90;;;;;;4992440;28;19989;-69
2023/04/08 19:35:13;;;;;;;;;;;10.70;99.90;;;;;;4992624;28;19926;-69
2023/04/08 19:37:40;;;;;;;;;;;10.70;99.90;;;;;;4993127;28;19925;-69
2023/04/08 19:40:08;;;;;;;;;;;10.60;99.90;;;;;;4991457;28;20364;-68
2023/04/08 19:42:35;;;;;;;;;;;10.60;99.90;;;;;;4998250;28;19929;-68
2023/04/08 19:45:02;;;;;;;;;;;10.60;99.90;;;;;;4989019;28;19929;-68
2023/04/08 19:47:29;;;;;;;;;;;10.60;99.90;;;;;;4986965;28;19926;-68
2023/04/08 19:49:57;;;;;;;;;;;10.60;99.90;;;;;;5000967;28;19925;-69
2023/04/08 19:52:25;;;;;;;;;;;10.50;99.90;;;;;;5001122;28;19926;-68
2023/04/08 19:54:52;;;;;;;;;;;10.50;99.90;;;;;;4998335;28;19925;-69
2023/04/08 19:57:19;;;;;;;;;;;10.40;99.90;;;;;;4993232;28;19932;-69
2023/04/08 19:59:46;;;;;;;;;;;10.40;99.90;;;;;;4996747;28;19926;-69
2023/04/08 20:02:13;;;;;;;;;;;10.30;99.90;;;;;;4995684;28;20282;-70
2023/04/08 20:04:40;;;;;;;;;;;10.20;99.90;;;;;;5002035;28;19933;-68
2023/04/08 20:07:07;;;;;;;;;;;10.20;99.90;;;;;;5013654;28;19926;-69
2023/04/08 20:09:35;;;;;;;;;;;10.20;99.90;;;;;;5004631;28;19926;-68
2023/04/08 20:12:04;;;;;;;;;;;10.10;99.90;;;;;;5009876;28;19934;-69
2023/04/08 20:14:31;;;;;;;;;;;10.10;99.90;;;;;;4985517;28;19981;-68
2023/04/08 20:16:58;;;;;;;;;;;10.20;99.90;;;;;;5003263;28;19983;-68
2023/04/08 20:19:25;;;;;;;;;;;10.10;99.90;;;;;;4989419;28;20317;-67
2023/04/08 20:21:52;;;;;;;;;;;10.20;99.90;;;;;;5000512;28;19925;-68
2023/04/08 20:24:18;;;;;;;;;;;10.10;99.90;;;;;;5000779;28;19929;-69
2023/04/08 20:26:47;;;;;;;;;;;10.20;99.90;;;;;;5005646;28;19925;-69
2023/04/08 20:29:13;;;;;;;;;;;10.10;99.90;;;;;;5000953;28;20012;-68
2023/04/08 20:31:41;;;;;;;;;;;10.10;99.90;;;;;;4984861;28;19926;-68
2023/04/08 20:34:08;;;;;;;;;;;10.00;99.90;;;;;;4999627;28;20336;-67
2023/04/08 20:36:35;;;;;;;;;;;10.00;99.90;;;;;;4990799;28;19933;-69
2023/04/08 20:39:02;;;;;;;;;;;10.10;99.90;;;;;;5002050;28;19941;-69
2023/04/08 20:41:28;;;;;;;;;;;10.10;99.90;;;;;;4997319;28;19940;-69
2023/04/08 20:43:57;;;;;;;;;;;10.10;99.90;;;;;;5000977;28;19933;-69
2023/04/08 20:46:23;;;;;;;;;;;10.10;99.90;;;;;;4977246;28;19934;-70
2023/04/08 20:48:50;;;;;;;;;;;10.10;99.90;;;;;;5001398;28;20377;-69
2023/04/08 20:51:17;;;;;;;;;;;10.10;99.90;;;;;;5002217;28;20173;-68
2023/04/08 20:53:44;;;;;;;;;;;10.20;99.90;;;;;;4992438;28;19957;-68
2023/04/08 20:56:11;;;;;;;;;;;;;;;;;;4989895;28;19925;-68
2023/04/08 20:58:37;;;;;;;;;;;10.10;99.90;;;;;;4996866;28;19953;-69
2023/04/08 21:01:06;;;;;;;;;;;10.20;99.90;;;;;;4995563;28;19929;-68
2023/04/08 21:03:33;;;;;;;;;;;10.20;99.90;;;;;;4999400;28;19965;-68
2023/04/08 21:06:00;;;;;;;;;;;10.20;99.90;;;;;;5006201;28;19980;-68
2023/04/08 21:08:26;;;;;;;;;;;10.20;99.90;;;;;;5003747;28;19933;-68
2023/04/08 21:10:53;;;;;;;;;;;10.20;99.90;;;;;;4997593;28;20389;-68
2023/04/08 21:13:20;;;;;;;;;;;10.20;99.90;;;;;;4996778;28;19957;-69
2023/04/08 21:15:46;;;;;;;;;;;10.10;99.90;;;;;;5000794;28;19937;-69
2023/04/08 21:18:15;;;;;;;;;;;10.10;99.90;;;;;;4995450;28;19926;-68
2023/04/08 21:20:41;;;;;;;;;;;10.10;99.90;;;;;;4992029;28;19926;-68
2023/04/08 21:23:08;;;;;;;;;;;10.10;99.90;;;;;;4993853;28;19930;-69
2023/04/08 21:25:35;;;;;;;;;;;10.00;99.90;;;;;;4999365;28;20328;-69
2023/04/08 21:28:02;;;;;;;;;;;10.10;99.90;;;;;;4984107;28;19941;-68
2023/04/08 21:30:28;;;;;;;;;;;10.10;99.90;;;;;;4996375;28;20405;-69
2023/04/08 21:32:55;;;;;;;;;;;10.10;99.90;;;;;;4989046;28;20356;-68
2023/04/08 21:35:23;;;;;;;;;;;10.00;99.90;;;;;;4997015;28;19980;-71
2023/04/08 21:37:50;;;;;;;;;;;10.00;99.90;;;;;;4987503;28;20364;-69
2023/04/08 21:40:17;;;;;;;;;;;9.90;99.90;;;;;;4998886;28;19983;-69
2023/04/08 21:42:44;;;;;;;;;;;9.80;99.90;;;;;;5004485;28;20341;-69
2023/04/08 21:45:11;;;;;;;;;;;9.80;99.90;;;;;;5004300;28;20277;-68
2023/04/08 21:47:38;;;;;;;;;;;9.80;99.90;;;;;;4998120;28;19929;-68
2023/04/08 21:50:05;;;;;;;;;;;9.90;99.90;;;;;;5006701;28;19926;-69
2023/04/08 21:52:35;;;;;;;;;;;9.80;99.90;;;;;;4994591;28;19926;-69
2023/04/08 21:55:02;;;;;;;;;;;9.90;99.90;;;;;;5013831;28;19925;-67
2023/04/08 21:57:30;;;;;;;;;;;9.90;99.90;;;;;;5008531;28;19954;-68
2023/04/08 21:59:56;;;;;;;;;;;9.90;99.90;;;;;;4998040;28;19926;-68
2023/04/08 22:02:23;;;;;;;;;;;9.90;99.90;;;;;;5011318;28;19973;-69
2023/04/08 22:04:50;;;;;;;;;;;9.90;99.90;;;;;;4991859;28;20404;-68
2023/04/08 22:07:17;;;;;;;;;;;9.90;99.90;;;;;;5002547;28;20019;-69
2023/04/08 22:09:46;;;;;;;;;;;9.90;99.90;;;;;;4995129;28;19925;-69
2023/04/08 22:12:13;;;;;;;;;;;;;;;;;;5002199;28;20033;-69
2023/04/08 22:14:40;;;;;;;;;;;10.00;99.90;;;;;;5006155;28;19926;-69
2023/04/08 22:17:07;;;;;;;;;;;;;;;;;;4992243;28;19930;-70
2023/04/08 22:19:33;;;;;;;;;;;10.60;99.90;;;;;;4985386;28;19930;-69
2023/04/08 22:22:00;;;;;;;;;;;10.00;99.90;;;;;;5004278;28;19925;-67
2023/04/08 22:24:27;;;;;;;;;;;10.00;99.90;;;;;;5007924;28;19930;-69
2023/04/08 22:26:56;;;;;;;;;;;10.00;99.90;;;;;;5000144;28;20308;-67
2023/04/08 22:29:23;;;;;;;;;;;10.00;99.90;;;;;;5000976;28;19926;-69
2023/04/08 22:31:51;;;;;;;;;;;10.00;99.90;;;;;;4988758;28;19933;-69
2023/04/08 22:34:18;;;;;;;;;;;9.80;99.90;;;;;;4984663;28;19926;-68
2023/04/08 22:36:45;;;;;;;;;;;9.80;99.90;;;;;;4991990;28;20314;-67
2023/04/08 22:39:11;;;;;;;;;;;9.70;99.90;;;;;;4998244;28;19926;-68
2023/04/08 22:41:38;;;;;;;;;;;9.60;99.90;;;;;;4996206;28;19929;-67
2023/04/08 22:44:06;;;;;;;;;;;9.50;99.90;;;;;;4995370;28;19930;-68
2023/04/08 22:46:33;;;;;;;;;;;9.30;99.90;;;;;;4990487;28;19930;-67
2023/04/08 22:49:00;;;;;;;;;;;9.10;99.90;;;;;;5005531;28;19976;-69
2023/04/08 22:51:27;;;;;;;;;;;9.00;99.90;;;;;;4995709;28;20361;-67
2023/04/08 22:53:54;;;;;;;;;;;8.90;99.90;;;;;;5004146;28;19994;-68
2023/04/08 22:56:22;;;;;;;;;;;8.70;99.90;;;;;;4985012;28;19937;-68
2023/04/08 22:58:48;;;;;;;;;;;8.60;99.90;;;;;;5010105;28;20348;-69
2023/04/08 23:01:19;;;;;;;;;;;8.50;99.90;;;;;;4978113;28;19930;-69
2023/04/08 23:03:46;;;;;;;;;;;8.40;99.90;;;;;;4987077;28;20420;-68
2023/04/08 23:06:12;;;;;;;;;;;8.30;99.90;;;;;;5003512;28;19926;-69
2023/04/08 23:08:40;;;;;;;;;;;;;;;;;;5006454;28;19925;-68
2023/04/08 23:11:07;;;;;;;;;;;8.00;99.90;;;;;;5002238;28;19933;-69
2023/04/08 23:13:34;;;;;;;;;;;8.10;99.90;;;;;;4991332;28;20404;-68
2023/04/08 23:16:01;;;;;;;;;;;8.00;99.90;;;;;;5001126;28;19968;-68
2023/04/08 23:18:28;;;;;;;;;;;;;;;;;;5007143;28;20020;-69
2023/04/08 23:20:57;;;;;;;;;;;7.80;99.90;;;;;;4998747;28;19925;-68
2023/04/08 23:23:24;;;;;;;;;;;7.80;99.90;;;;;;5001856;28;19934;-68
2023/04/08 23:25:51;;;;;;;;;;;7.80;99.90;;;;;;5000752;28;19932;-68
2023/04/08 23:28:18;;;;;;;;;;;7.70;99.90;;;;;;4985236;28;19926;-69
2023/04/08 23:30:45;;;;;;;;;;;7.70;99.90;;;;;;4997867;28;19988;-68
2023/04/08 23:33:12;;;;;;;;;;;7.70;99.90;;;;;;5004156;28;19973;-68
2023/04/08 23:35:39;;;;;;;;;;;7.60;99.90;;;;;;5000107;28;19925;-69
2023/04/08 23:38:07;;;;;;;;;;;7.60;99.90;;;;;;5006662;28;19969;-69
2023/04/08 23:40:34;;;;;;;;;;;7.50;99.90;;;;;;4983801;28;19981;-67
2023/04/08 23:43:01;;;;;;;;;;;7.40;99.90;;;;;;5003522;28;19929;-69
2023/04/08 23:45:27;;;;;;;;;;;7.40;99.90;;;;;;4988750;28;19981;-69
2023/04/08 23:47:54;;;;;;;;;;;7.30;99.90;;;;;;4993039;28;19926;-68
2023/04/08 23:50:21;;;;;;;;;;;7.30;99.90;;;;;;4989339;28;19930;-69
2023/04/08 23:52:49;;;;;;;;;;;;;;;;;;4997017;28;19934;-69
2023/04/08 23:55:16;;;;;;;;;;;;;;;;;;5005356;28;19933;-68
2023/04/08 23:57:43;;;;;;;;;;;;;;;;;;5001972;28;19929;-69
